createdAt,value
2022-11-14T00:01:12.876Z,97424.75
2022-11-14T00:03:42.071Z,97427.47
2022-11-14T00:06:09.069Z,97433.03
2022-11-14T00:08:36.217Z,97431.72
2022-11-14T00:11:03.261Z,97423.84
2022-11-14T00:13:29.805Z,97420.34
2022-11-14T00:15:56.511Z,97414.97
2022-11-14T00:18:23.696Z,97420.81
2022-11-14T00:20:52.184Z,97414.75
2022-11-14T00:23:19.920Z,97416.06
2022-11-14T00:25:46.987Z,97411.44
2022-11-14T00:28:13.536Z,97405.59
2022-11-14T00:30:40.286Z,97414.56
2022-11-14T00:33:06.810Z,97411.06
2022-11-14T00:35:33.363Z,97411.81
2022-11-14T00:37:59.873Z,97413.66
2022-11-14T00:40:28.928Z,97410.50
2022-11-14T00:42:55.436Z,97415.50
2022-11-14T00:45:22.067Z,97407.16
2022-11-14T00:47:48.709Z,97413.56
2022-11-14T00:50:17.081Z,97411.06
2022-11-14T00:52:46.101Z,97409.31
2022-11-14T00:55:12.656Z,97409.22
2022-11-14T00:57:39.231Z,97403.66
2022-11-14T01:00:07.008Z,97404.78
2022-11-14T01:02:33.813Z,97394.72
2022-11-14T01:05:02.897Z,97396.59
2022-11-14T01:07:29.550Z,97389.91
2022-11-14T01:09:56.202Z,97391.38
2022-11-14T01:12:22.720Z,97393.53
2022-11-14T01:14:49.283Z,97394.47
2022-11-14T01:17:15.866Z,97395.00
2022-11-14T01:19:42.384Z,97390.31
2022-11-14T01:22:09.301Z,97388.06
2022-11-14T01:24:35.873Z,97395.28
2022-11-14T01:27:02.564Z,97408.66
2022-11-14T01:29:29.158Z,97399.75
2022-11-14T01:31:56.103Z,97408.78
2022-11-14T01:34:23.274Z,97410.97
2022-11-14T01:36:49.807Z,97399.31
2022-11-14T01:39:16.388Z,97395.13
2022-11-14T01:41:42.925Z,97395.03
2022-11-14T01:44:17.435Z,97395.28
2022-11-14T01:46:50.426Z,97396.78
2022-11-14T01:49:26.043Z,97393.03
2022-11-14T01:52:03.542Z,97394.25
2022-11-14T01:54:34.811Z,97399.72
2022-11-14T01:57:03.077Z,97390.25
2022-11-14T01:59:34.567Z,97390.47
2022-11-14T02:02:07.086Z,97376.78
2022-11-14T02:04:39.723Z,97383.28
2022-11-14T02:07:07.408Z,97393.56
2022-11-14T02:09:41.058Z,97386.53
2022-11-14T02:12:10.159Z,97380.31
2022-11-14T02:14:38.029Z,97372.78
2022-11-14T02:17:28.582Z,97358.63
2022-11-14T02:20:05.770Z,97354.97
2022-11-14T02:22:32.821Z,97346.97
2022-11-14T02:24:59.375Z,97347.28
2022-11-14T02:27:26.445Z,97342.44
2022-11-14T02:29:52.961Z,97342.78
2022-11-14T02:32:19.592Z,97347.88
2022-11-14T02:34:46.106Z,97351.38
2022-11-14T02:37:12.625Z,97341.13
2022-11-14T02:39:39.345Z,97334.28
2022-11-14T02:42:05.956Z,97337.69
2022-11-14T02:44:32.611Z,97339.69
2022-11-14T02:47:02.152Z,97337.69
2022-11-14T02:49:28.674Z,97328.66
2022-11-14T02:51:55.151Z,97319.06
2022-11-14T02:54:21.698Z,97320.56
2022-11-14T02:56:48.215Z,97325.75
2022-11-14T02:59:14.716Z,97331.16
2022-11-14T03:01:43.574Z,97320.88
2022-11-14T03:04:10.112Z,97325.81
2022-11-14T03:06:36.853Z,97324.25
2022-11-14T03:09:03.623Z,97314.72
2022-11-14T03:11:31.210Z,97308.94
2022-11-14T03:13:59.568Z,97311.69
2022-11-14T03:16:26.271Z,97312.59
2022-11-14T03:18:53.317Z,97326.63
2022-11-14T03:21:22.015Z,97325.97
2022-11-14T03:23:48.811Z,97332.16
2022-11-14T03:26:16.429Z,97332.00
2022-11-14T03:28:43.149Z,97338.94
2022-11-14T03:31:13.322Z,97340.03
2022-11-14T03:33:40.268Z,97339.19
2022-11-14T03:36:07.775Z,97326.00
2022-11-14T03:38:35.709Z,97338.94
2022-11-14T03:41:02.259Z,97345.53
2022-11-14T03:43:34.917Z,97346.19
2022-11-14T03:46:02.747Z,97349.22
2022-11-14T03:48:29.957Z,97345.84
2022-11-14T03:50:57.160Z,97343.81
2022-11-14T03:53:24.142Z,97347.69
2022-11-14T03:55:53.150Z,97350.63
2022-11-14T03:58:19.801Z,97337.16
2022-11-14T04:00:46.546Z,97347.94
2022-11-14T04:03:13.277Z,97349.44
2022-11-14T04:05:39.971Z,97350.69
2022-11-14T04:08:07.249Z,97348.25
2022-11-14T04:10:33.932Z,97350.97
2022-11-14T04:13:00.491Z,97349.53
2022-11-14T04:15:27.009Z,97358.28
2022-11-14T04:17:56.014Z,97352.84
2022-11-14T04:20:22.545Z,97351.19
2022-11-14T04:22:51.280Z,97355.09
2022-11-14T04:25:17.939Z,97348.22
2022-11-14T04:27:44.477Z,97338.56
2022-11-14T04:30:11.612Z,97344.00
2022-11-14T04:32:38.164Z,97344.66
2022-11-14T04:35:05.102Z,97350.59
2022-11-14T04:37:31.959Z,97358.03
2022-11-14T04:40:01.045Z,97364.69
2022-11-14T04:42:28.391Z,97363.50
2022-11-14T04:44:55.385Z,97351.84
2022-11-14T04:47:22.140Z,97351.47
2022-11-14T04:49:48.887Z,97350.34
2022-11-14T04:52:16.013Z,97353.81
2022-11-14T04:54:42.743Z,97353.16
2022-11-14T04:57:09.644Z,97345.75
2022-11-14T04:59:36.475Z,97349.16
2022-11-14T05:02:05.681Z,97356.44
2022-11-14T05:04:32.565Z,97369.94
2022-11-14T05:06:59.430Z,97363.31
2022-11-14T05:09:26.217Z,97365.16
2022-11-14T05:11:52.905Z,97361.91
2022-11-14T05:14:19.610Z,97354.09
2022-11-14T05:16:46.454Z,97360.09
2022-11-14T05:19:13.207Z,97364.09
2022-11-14T05:21:42.065Z,97358.25
2022-11-14T05:24:09.098Z,97357.41
2022-11-14T05:26:35.761Z,97364.69
2022-11-14T05:29:02.369Z,97361.25
2022-11-14T05:31:29.195Z,97374.75
2022-11-14T05:33:58.381Z,97375.72
2022-11-14T05:36:25.117Z,97382.41
2022-11-14T05:38:52.235Z,97392.03
2022-11-14T05:41:22.376Z,97386.41
2022-11-14T05:43:49.029Z,97393.38
2022-11-14T05:46:16.841Z,97400.41
2022-11-14T05:48:43.857Z,97398.88
2022-11-14T05:51:15.176Z,97399.97
2022-11-14T05:53:44.091Z,97396.13
2022-11-14T05:56:13.028Z,97397.28
2022-11-14T05:58:40.182Z,97392.44
2022-11-14T06:01:08.465Z,97392.28
2022-11-14T06:03:37.295Z,97392.16
2022-11-14T06:06:09.285Z,97396.69
2022-11-14T06:08:36.760Z,97404.00
2022-11-14T06:11:05.567Z,97404.56
2022-11-14T06:13:32.780Z,97404.47
2022-11-14T06:16:05.065Z,97398.59
2022-11-14T06:18:33.069Z,97401.28
2022-11-14T06:21:04.206Z,97402.56
2022-11-14T06:23:30.776Z,97412.09
2022-11-14T06:26:02.247Z,97414.06
2022-11-14T06:28:29.848Z,97405.69
2022-11-14T06:31:01.218Z,97409.97
2022-11-14T06:33:29.547Z,97418.19
2022-11-14T06:36:04.915Z,97432.25
2022-11-14T06:38:32.932Z,97437.66
2022-11-14T06:41:13.477Z,97424.47
2022-11-14T06:43:45.357Z,97421.94
2022-11-14T06:46:14.986Z,97417.16
2022-11-14T06:48:43.193Z,97423.75
2022-11-14T06:51:14.024Z,97414.00
2022-11-14T06:53:44.917Z,97400.03
2022-11-14T06:56:13.548Z,97407.91
2022-11-14T06:58:44.469Z,97411.50
2022-11-14T07:01:14.163Z,97404.44
2022-11-14T07:03:44.126Z,97404.06
2022-11-14T07:06:13.365Z,97406.88
2022-11-14T07:08:40.253Z,97416.16
2022-11-14T07:11:09.603Z,97426.09
2022-11-14T07:13:37.832Z,97426.03
2022-11-14T07:16:05.319Z,97425.75
2022-11-14T07:18:33.914Z,97427.97
2022-11-14T07:21:03.559Z,97431.41
2022-11-14T07:23:32.124Z,97426.03
2022-11-14T07:26:09.706Z,97429.69
2022-11-14T07:28:37.985Z,97429.00
2022-11-14T07:31:06.094Z,97419.22
2022-11-14T07:33:33.712Z,97417.84
2022-11-14T07:36:00.261Z,97421.63
2022-11-14T07:38:27.327Z,97418.97
2022-11-14T07:41:00.079Z,97418.84
2022-11-14T07:43:27.539Z,97422.19
2022-11-14T07:45:55.536Z,97413.97
2022-11-14T07:48:23.824Z,97415.19
2022-11-14T07:50:50.961Z,97419.31
2022-11-14T07:53:18.095Z,97418.22
2022-11-14T07:55:44.918Z,97421.63
2022-11-14T07:58:14.563Z,97427.72
2022-11-14T08:00:41.466Z,97419.44
2022-11-14T08:03:10.818Z,97414.97
2022-11-14T08:05:37.576Z,97392.16
2022-11-14T08:08:04.705Z,97398.22
2022-11-14T08:10:33.752Z,97398.44
2022-11-14T08:13:30.142Z,97392.47
2022-11-14T08:15:50.675Z,97397.53
2022-11-14T08:18:17.645Z,97386.56
2022-11-14T08:20:44.850Z,97385.31
2022-11-14T08:23:12.479Z,97390.16
2022-11-14T08:25:39.323Z,97379.81
2022-11-14T08:28:08.291Z,97396.97
2022-11-14T08:30:35.395Z,97395.47
2022-11-14T08:33:03.866Z,97397.69
2022-11-14T08:35:31.004Z,97398.75
2022-11-14T08:37:57.624Z,97393.97
2022-11-14T08:40:24.464Z,97390.91
2022-11-14T08:42:51.392Z,97392.53
2022-11-14T08:45:18.090Z,97390.16
2022-11-14T08:47:51.001Z,97387.47
2022-11-14T08:50:17.848Z,97376.25
2022-11-14T08:52:50.313Z,97385.13
2022-11-14T08:55:17.271Z,97392.31
2022-11-14T08:57:49.046Z,97387.91
2022-11-14T09:00:16.598Z,97390.63
2022-11-14T09:02:43.264Z,97391.66
2022-11-14T09:05:11.210Z,97395.31
2022-11-14T09:07:38.075Z,97392.56
2022-11-14T09:10:05.321Z,97381.28
2022-11-14T09:12:35.260Z,97386.53
2022-11-14T09:15:04.662Z,97383.81
2022-11-14T09:17:31.275Z,97383.13
2022-11-14T09:19:57.897Z,97374.91
2022-11-14T09:22:24.675Z,97379.91
2022-11-14T09:24:52.199Z,97380.78
2022-11-14T09:27:19.126Z,97376.91
2022-11-14T09:29:45.997Z,97376.22
2022-11-14T09:32:12.549Z,97365.94
2022-11-14T09:34:43.091Z,97369.25
2022-11-14T09:37:10.142Z,97371.88
2022-11-14T09:39:40.562Z,97370.34
2022-11-14T09:42:07.391Z,97372.78
2022-11-14T09:44:49.547Z,97370.28
2022-11-14T09:47:27.551Z,97373.97
2022-11-14T09:50:02.336Z,97372.13
2022-11-14T09:52:46.454Z,97374.47
2022-11-14T09:55:37.130Z,97370.09
2022-11-14T09:58:05.382Z,97370.34
2022-11-14T10:00:58.441Z,97370.25
2022-11-14T10:04:07.026Z,97376.53
2022-11-14T10:06:50.379Z,97372.16
2022-11-14T10:09:17.090Z,97382.25
2022-11-14T10:11:59.604Z,97363.69
2022-11-14T10:14:38.533Z,97366.06
2022-11-14T10:17:37.581Z,97363.19
2022-11-14T10:20:18.669Z,97355.72
2022-11-14T10:23:16.365Z,97356.91
2022-11-14T10:25:54.808Z,97356.88
2022-11-14T10:28:43.218Z,97366.00
2022-11-14T10:31:38.188Z,97365.03
2022-11-14T10:34:51.323Z,97359.41
2022-11-14T10:37:37.759Z,97356.59
2022-11-14T10:40:22.279Z,97351.03
2022-11-14T10:43:00.617Z,97354.78
2022-11-14T10:45:35.110Z,97355.44
2022-11-14T10:48:09.219Z,97354.97
2022-11-14T10:51:06.520Z,97350.56
2022-11-14T10:53:57.590Z,97358.53
2022-11-14T10:56:24.455Z,97358.28
2022-11-14T10:58:51.230Z,97353.34
2022-11-14T11:01:42.441Z,97350.94
2022-11-14T11:04:13.632Z,97351.44
2022-11-14T11:06:40.906Z,97344.47
2022-11-14T11:09:34.362Z,97342.41
2022-11-14T11:12:06.851Z,97346.13
2022-11-14T11:14:34.762Z,97347.09
2022-11-14T11:17:11.544Z,97346.31
2022-11-14T11:19:42.616Z,97338.78
2022-11-14T11:22:30.162Z,97337.34
2022-11-14T11:24:57.005Z,97334.53
2022-11-14T11:27:26.951Z,97335.28
2022-11-14T11:30:05.181Z,97330.59
2022-11-14T11:32:32.018Z,97335.66
2022-11-14T11:35:01.537Z,97327.97
2022-11-14T11:37:35.967Z,97324.72
2022-11-14T11:40:06.343Z,97322.25
2022-11-14T11:43:31.564Z,97324.22
2022-11-14T11:45:31.700Z,97312.91
2022-11-14T11:48:05.593Z,97314.84
2022-11-14T11:50:35.068Z,97307.91
2022-11-14T11:53:11.321Z,97307.13
2022-11-14T11:55:44.119Z,97304.09
2022-11-14T11:58:22.739Z,97299.03
2022-11-14T12:00:55.210Z,97277.22
2022-11-14T12:03:24.749Z,97264.94
2022-11-14T12:06:20.757Z,97269.47
2022-11-14T12:08:56.104Z,97265.63
2022-11-14T12:11:26.405Z,97265.75
2022-11-14T12:14:01.649Z,97265.19
2022-11-14T12:16:59.257Z,97254.38
2022-11-14T12:19:53.846Z,97250.69
2022-11-14T12:22:42.824Z,97261.88
2022-11-14T12:25:21.470Z,97265.47
2022-11-14T12:28:09.019Z,97273.72
2022-11-14T12:30:37.298Z,97268.47
2022-11-14T12:33:35.888Z,97277.50
2022-11-14T12:36:08.656Z,97287.03
2022-11-14T12:38:46.685Z,97293.94
2022-11-14T12:41:24.485Z,97289.50
2022-11-14T12:43:53.324Z,97294.34
2022-11-14T12:46:22.588Z,97300.59
2022-11-14T12:48:49.023Z,97304.28
2022-11-14T12:51:24.981Z,97300.03
2022-11-14T12:53:52.840Z,97288.13
2022-11-14T12:56:25.365Z,97289.66
2022-11-14T12:59:10.234Z,97288.41
2022-11-14T13:01:50.240Z,97290.91
2022-11-14T13:04:16.804Z,97293.91
2022-11-14T13:07:02.084Z,97302.75
2022-11-14T13:09:36.090Z,97300.00
2022-11-14T13:12:53.070Z,97299.44
2022-11-14T13:15:38.031Z,97298.31
2022-11-14T13:18:39.979Z,97302.34
2022-11-14T13:21:45.891Z,97304.00
2022-11-14T13:24:19.790Z,97308.31
2022-11-14T13:26:52.671Z,97308.13
2022-11-14T13:29:40.918Z,97303.13
2022-11-14T13:32:12.159Z,97310.06
2022-11-14T13:34:45.156Z,97314.47
2022-11-14T13:37:35.036Z,97325.97
2022-11-14T13:40:18.683Z,97320.41
2022-11-14T13:43:03.763Z,97318.75
2022-11-14T13:45:39.317Z,97322.91
2022-11-14T13:48:47.770Z,97322.66
2022-11-14T13:54:16.348Z,97319.03
2022-11-14T13:57:00.502Z,97317.69
2022-11-14T13:59:57.022Z,97329.03
2022-11-14T14:02:26.574Z,97332.03
2022-11-14T14:04:56.095Z,97332.44
2022-11-14T14:07:37.961Z,97336.03
2022-11-14T14:10:26.223Z,97343.53
2022-11-14T14:13:31.830Z,97349.06
2022-11-14T14:16:07.533Z,97351.72
2022-11-14T14:18:54.503Z,97356.38
2022-11-14T14:21:44.358Z,97363.63
2022-11-14T14:24:17.130Z,97373.03
2022-11-14T14:27:21.598Z,97368.47
2022-11-14T14:30:02.614Z,97372.31
2022-11-14T14:32:31.530Z,97373.88
2022-11-14T14:35:00.493Z,97382.72
2022-11-14T14:37:29.283Z,97377.59
2022-11-14T14:40:01.077Z,97379.13
2022-11-14T14:42:36.536Z,97372.47
2022-11-14T14:45:04.533Z,97374.38
2022-11-14T14:47:44.736Z,97368.97
2022-11-14T14:50:27.115Z,97379.06
2022-11-14T14:53:02.014Z,97383.06
2022-11-14T14:55:32.450Z,97384.06
2022-11-14T14:58:26.271Z,97376.50
2022-11-14T15:01:01.626Z,97380.34
2022-11-14T15:03:37.121Z,97383.69
2022-11-14T15:06:22.349Z,97384.19
2022-11-14T15:08:49.643Z,97380.56
2022-11-14T15:11:16.506Z,97380.28
2022-11-14T15:13:43.759Z,97379.88
2022-11-14T15:16:14.071Z,97387.66
2022-11-14T15:18:40.915Z,97381.69
2022-11-14T15:21:10.656Z,97394.81
2022-11-14T15:23:39.109Z,97390.84
2022-11-14T15:26:18.022Z,97386.44
2022-11-14T15:28:47.809Z,97387.09
2022-11-14T15:31:22.595Z,97385.56
2022-11-14T15:34:04.825Z,97387.50
2022-11-14T15:36:31.674Z,97393.78
2022-11-14T15:39:03.648Z,97388.13
2022-11-14T15:41:32.233Z,97389.09
2022-11-14T15:44:03.049Z,97398.38
2022-11-14T15:46:40.711Z,97399.66
2022-11-14T15:49:08.876Z,97394.84
2022-11-14T15:51:50.752Z,97397.00
2022-11-14T15:54:34.662Z,97397.22
2022-11-14T15:57:15.087Z,97397.00
2022-11-14T15:59:41.843Z,97391.47
2022-11-14T16:02:18.271Z,97399.19
2022-11-14T16:04:47.895Z,97400.75
2022-11-14T16:07:18.134Z,97397.66
2022-11-14T16:09:45.194Z,97400.28
2022-11-14T16:12:12.019Z,97398.81
2022-11-14T16:14:41.164Z,97394.84
2022-11-14T16:17:14.109Z,97407.91
2022-11-14T16:19:46.066Z,97398.34
2022-11-14T16:22:15.942Z,97401.97
2022-11-14T16:24:42.390Z,97397.06
2022-11-14T16:27:11.719Z,97393.19
2022-11-14T16:29:40.696Z,97391.22
2022-11-14T16:32:10.396Z,97391.91
2022-11-14T16:34:36.846Z,97399.03
2022-11-14T16:37:03.529Z,97394.41
2022-11-14T16:39:32.992Z,97387.94
2022-11-14T16:42:02.450Z,97393.94
2022-11-14T16:44:29.054Z,97392.88
2022-11-14T16:46:55.537Z,97399.16
2022-11-14T16:49:22.109Z,97396.06
2022-11-14T16:51:50.682Z,97396.91
2022-11-14T16:54:20.782Z,97397.72
2022-11-14T16:56:48.028Z,97402.50
2022-11-14T16:59:14.764Z,97405.16
2022-11-14T17:01:41.612Z,97398.91
2022-11-14T17:04:08.388Z,97404.94
2022-11-14T17:06:37.287Z,97408.72
2022-11-14T17:09:03.969Z,97415.81
2022-11-14T17:11:33.078Z,97419.19
2022-11-14T17:13:59.618Z,97423.34
2022-11-14T17:16:26.167Z,97424.19
2022-11-14T17:18:56.575Z,97423.66
2022-11-14T17:21:24.255Z,97422.81
2022-11-14T17:23:54.647Z,97419.19
2022-11-14T17:26:21.413Z,97431.91
2022-11-14T17:28:47.979Z,97425.09
2022-11-14T17:31:15.917Z,97423.44
2022-11-14T17:33:42.369Z,97422.28
2022-11-14T17:36:10.400Z,97426.00
2022-11-14T17:38:38.219Z,97424.41
2022-11-14T17:41:08.158Z,97427.16
2022-11-14T17:43:39.547Z,97421.13
2022-11-14T17:46:12.634Z,97422.97
2022-11-14T17:48:42.709Z,97422.75
2022-11-14T17:51:12.801Z,97415.88
2022-11-14T17:53:40.056Z,97417.63
2022-11-14T17:56:09.913Z,97416.63
2022-11-14T17:58:39.237Z,97420.84
2022-11-14T18:01:14.472Z,97416.31
2022-11-14T18:03:41.642Z,97418.94
2022-11-14T18:06:10.464Z,97421.16
2022-11-14T18:08:37.727Z,97418.50
2022-11-14T18:11:06.107Z,97432.00
2022-11-14T18:13:33.297Z,97430.88
2022-11-14T18:16:19.947Z,97432.19
2022-11-14T18:18:46.472Z,97427.09
2022-11-14T18:21:18.965Z,97430.81
2022-11-14T18:23:54.552Z,97427.09
2022-11-14T18:26:27.133Z,97428.28
2022-11-14T18:28:58.813Z,97423.19
2022-11-14T18:31:28.138Z,97428.66
2022-11-14T18:33:57.441Z,97420.53
2022-11-14T18:36:24.262Z,97420.06
2022-11-14T18:38:50.776Z,97422.34
2022-11-14T18:41:19.384Z,97424.28
2022-11-14T18:43:46.118Z,97427.25
2022-11-14T18:46:21.714Z,97420.69
2022-11-14T18:48:52.571Z,97422.53
2022-11-14T18:51:22.037Z,97424.28
2022-11-14T18:53:48.777Z,97420.94
2022-11-14T18:56:18.029Z,97423.34
2022-11-14T18:58:45.397Z,97421.97
2022-11-14T19:01:13.964Z,97409.13
2022-11-14T19:03:40.539Z,97421.16
2022-11-14T19:06:08.806Z,97421.84
2022-11-14T19:08:35.337Z,97423.00
2022-11-14T19:11:05.370Z,97420.19
2022-11-14T19:13:32.083Z,97426.91
2022-11-14T19:16:05.590Z,97424.00
2022-11-14T19:18:35.161Z,97419.56
2022-11-14T19:21:06.084Z,97416.56
2022-11-14T19:23:33.902Z,97410.88
2022-11-14T19:26:01.727Z,97421.91
2022-11-14T19:28:32.309Z,97425.94
2022-11-14T19:31:05.967Z,97418.81
2022-11-14T19:33:35.232Z,97425.22
2022-11-14T19:36:06.792Z,97424.06
2022-11-14T19:38:33.512Z,97421.09
2022-11-14T19:41:09.334Z,97425.09
2022-11-14T19:43:43.336Z,97426.75
2022-11-14T19:46:10.548Z,97433.88
2022-11-14T19:48:37.815Z,97421.81
2022-11-14T19:51:09.698Z,97431.69
2022-11-14T19:53:37.675Z,97431.38
2022-11-14T19:56:09.769Z,97431.44
2022-11-14T19:58:37.879Z,97429.28
2022-11-14T20:01:06.786Z,97439.38
2022-11-14T20:03:33.716Z,97440.91
2022-11-14T20:06:00.641Z,97437.44
2022-11-14T20:08:27.282Z,97449.31
2022-11-14T20:11:04.922Z,97443.66
2022-11-14T20:13:38.002Z,97443.13
2022-11-14T20:16:12.631Z,97436.19
2022-11-14T20:18:40.486Z,97433.25
2022-11-14T20:21:10.667Z,97429.28
2022-11-14T20:23:37.605Z,97428.94
2022-11-14T20:26:10.967Z,97424.75
2022-11-14T20:28:38.418Z,97425.75
2022-11-14T20:31:07.416Z,97424.75
2022-11-14T20:33:39.070Z,97433.63
2022-11-14T20:36:11.507Z,97431.00
2022-11-14T20:38:38.104Z,97436.94
2022-11-14T20:41:05.333Z,97440.84
2022-11-14T20:43:32.323Z,97438.66
2022-11-14T20:46:06.130Z,97442.78
2022-11-14T20:48:37.495Z,97443.88
2022-11-14T20:51:10.460Z,97444.91
2022-11-14T20:53:37.134Z,97442.00
2022-11-14T20:56:06.698Z,97439.91
2022-11-14T20:58:33.740Z,97431.06
2022-11-14T21:01:00.347Z,97432.72
2022-11-14T21:03:30.019Z,97429.69
2022-11-14T21:06:00.171Z,97435.91
2022-11-14T21:08:26.792Z,97432.75
2022-11-14T21:11:02.033Z,97438.94
2022-11-14T21:13:47.292Z,97432.69
2022-11-14T21:16:19.120Z,97431.09
2022-11-14T21:18:48.346Z,97431.00
2022-11-14T21:21:19.821Z,97432.63
2022-11-14T21:23:47.317Z,97423.97
2022-11-14T21:26:13.695Z,97428.97
2022-11-14T21:28:43.026Z,97421.16
2022-11-14T21:31:18.546Z,97424.34
2022-11-14T21:33:45.929Z,97417.78
2022-11-14T21:36:43.095Z,97413.53
2022-11-14T21:39:03.096Z,97408.25
2022-11-14T21:41:31.046Z,97410.25
2022-11-14T21:43:59.675Z,97416.75
2022-11-14T21:46:27.164Z,97412.84
2022-11-14T21:48:55.502Z,97401.28
2022-11-14T21:51:24.514Z,97404.06
2022-11-14T21:53:54.539Z,97399.66
2022-11-14T21:56:22.520Z,97397.03
2022-11-14T21:58:50.576Z,97386.88
2022-11-14T22:01:40.416Z,97390.59
2022-11-14T22:04:12.962Z,97399.72
2022-11-14T22:06:41.380Z,97401.09
2022-11-14T22:09:08.672Z,97410.47
2022-11-14T22:11:37.963Z,97402.56
2022-11-14T22:14:04.578Z,97400.22
2022-11-14T22:16:31.569Z,97396.91
2022-11-14T22:19:04.524Z,97400.56
2022-11-14T22:21:31.635Z,97400.56
2022-11-14T22:23:58.200Z,97392.91
2022-11-14T22:26:24.604Z,97398.84
2022-11-14T22:28:51.057Z,97407.78
2022-11-14T22:31:22.960Z,97401.25
2022-11-14T22:33:57.907Z,97403.09
2022-11-14T22:36:26.319Z,97398.44
2022-11-14T22:38:54.706Z,97394.50
2022-11-14T22:41:30.690Z,97391.28
2022-11-14T22:44:01.777Z,97395.56
2022-11-14T22:46:28.999Z,97394.22
2022-11-14T22:48:55.987Z,97391.16
2022-11-14T22:51:26.893Z,97396.16
2022-11-14T22:53:55.174Z,97390.41
2022-11-14T22:56:24.331Z,97387.66
2022-11-14T22:58:51.443Z,97394.63
2022-11-14T23:01:20.886Z,97387.84
2022-11-14T23:03:48.331Z,97389.44
2022-11-14T23:06:17.644Z,97394.91
2022-11-14T23:08:44.381Z,97394.63
2022-11-14T23:11:14.418Z,97391.88
2022-11-14T23:13:43.550Z,97386.06
2022-11-14T23:16:18.657Z,97378.81
2022-11-14T23:18:48.199Z,97386.38
2022-11-14T23:21:20.028Z,97386.19
2022-11-14T23:23:46.832Z,97396.22
2022-11-14T23:26:20.172Z,97383.09
2022-11-14T23:28:46.655Z,97382.38
2022-11-14T23:31:19.440Z,97385.56
2022-11-14T23:33:47.307Z,97378.28
2022-11-14T23:36:16.486Z,97374.31
2022-11-14T23:38:42.946Z,97374.88
2022-11-14T23:41:16.239Z,97374.31
2022-11-14T23:43:42.793Z,97366.41
2022-11-14T23:46:11.766Z,97351.09
2022-11-14T23:48:38.195Z,97359.78
2022-11-14T23:51:04.721Z,97357.06
2022-11-14T23:53:31.535Z,97354.03
2022-11-14T23:56:01.963Z,97352.47
2022-11-14T23:58:29.920Z,97349.13
